Time;durP1;ratioP1;P1;durP2;ratioP2;P2;SDS_P1;SDS_P2;PMS_P1;PMS_P2;Temp;Humidity;BMP_temperature;BMP_pressure;BME280_temperature;BME280_humidity;BME280_pressure;Samples;Min_cycle;Max_cycle;Signal;HPM_P1;HPM_P2
2022/06/02 00:01:30;;;;;;;5.83;5.37;;;16.00;99.90;;;;;;4977661;28;20276;-77
2022/06/02 00:04:00;;;;;;;5.37;5.07;;;15.90;99.90;;;;;;4964446;28;20202;-77
2022/06/02 00:06:42;;;;;;;5.63;5.23;;;15.80;99.90;;;;;;4963488;28;20228;-76
2022/06/02 00:09:18;;;;;;;6.10;5.60;;;15.80;99.90;;;;;;4962954;28;20206;-77
2022/06/02 00:11:55;;;;;;;5.73;5.33;;;15.70;99.90;;;;;;4956503;29;20200;-77
2022/06/02 00:14:29;;;;;;;5.53;5.13;;;15.60;99.90;;;;;;4964116;28;20208;-76
2022/06/02 00:17:01;;;;;;;5.83;5.27;;;15.50;99.90;;;;;;4963640;28;20214;-76
2022/06/02 00:19:39;;;;;;;5.50;5.10;;;15.50;99.90;;;;;;4963970;28;20214;-77
2022/06/02 00:22:14;;;;;;;5.60;5.20;;;15.50;99.90;;;;;;4978493;28;20206;-77
2022/06/02 00:24:50;;;;;;;5.23;4.83;;;15.40;99.90;;;;;;4963968;28;20608;-78
2022/06/02 00:27:27;;;;;;;5.40;5.00;;;15.40;99.90;;;;;;4975824;28;20229;-77
2022/06/02 00:30:05;;;;;;;5.40;5.00;;;15.40;99.90;;;;;;4963443;28;20198;-76
2022/06/02 00:32:39;;;;;;;5.17;4.80;;;15.30;99.90;;;;;;4962653;28;20265;-75
2022/06/02 00:35:20;;;;;;;5.47;4.97;;;15.20;99.90;;;;;;4962759;28;20213;-77
2022/06/02 00:37:55;;;;;;;5.00;4.70;;;15.20;99.90;;;;;;4972363;28;20219;-77
2022/06/02 00:40:26;;;;;;;4.80;4.50;;;15.10;99.90;;;;;;4963134;28;20283;-76
2022/06/02 00:43:02;;;;;;;4.90;4.60;;;15.10;99.90;;;;;;4963605;28;20204;-76
2022/06/02 00:45:29;;;;;;;4.83;4.57;;;15.00;99.90;;;;;;4964180;28;20201;-76
2022/06/02 00:48:11;;;;;;;4.80;4.50;;;14.90;99.90;;;;;;4963982;28;20231;-77
2022/06/02 00:50:50;;;;;;;5.33;5.00;;;14.90;99.90;;;;;;4963811;28;20226;-76
2022/06/02 00:53:31;;;;;;;5.80;5.20;;;14.80;99.90;;;;;;4964045;28;20205;-78
2022/06/02 00:59:17;;;;;;;5.60;5.20;;;14.70;99.90;;;;;;4903093;29;20210;-76
2022/06/02 01:01:43;;;;;;;5.40;5.10;;;14.60;99.90;;;;;;4956829;28;20238;-77
2022/06/02 01:04:13;;;;;;;5.10;4.80;;;14.50;99.90;;;;;;4978480;28;20625;-76
2022/06/02 01:06:53;;;;;;;4.90;4.70;;;14.50;99.90;;;;;;4963012;28;20210;-79
2022/06/02 01:09:45;;;;;;;5.20;4.90;;;14.40;99.90;;;;;;4962027;28;20215;-76
2022/06/02 01:12:27;;;;;;;5.43;4.93;;;14.30;99.90;;;;;;4959140;29;20228;-76
2022/06/02 01:15:05;;;;;;;5.00;4.70;;;14.30;99.90;;;;;;4957363;29;20248;-76
2022/06/02 01:17:45;;;;;;;5.40;5.00;;;14.20;99.90;;;;;;4962305;28;20762;-76
2022/06/02 01:20:30;;;;;;;5.23;4.90;;;14.20;99.90;;;;;;4977180;28;20222;-77
2022/06/02 01:23:36;;;;;;;5.50;5.10;;;14.10;99.90;;;;;;4958211;28;20313;-77
2022/06/02 01:26:32;;;;;;;5.70;5.30;;;14.10;99.90;;;;;;4958289;28;20190;-78
2022/06/02 01:29:10;;;;;;;5.30;5.00;;;14.00;99.90;;;;;;4958255;29;20611;-76
2022/06/02 01:31:48;;;;;;;5.70;5.20;;;14.10;99.90;;;;;;4961333;28;20187;-76
2022/06/02 01:34:40;;;;;;;5.40;5.00;;;14.00;99.90;;;;;;4962071;28;20636;-76
2022/06/02 01:37:22;;;;;;;5.73;5.33;;;14.00;99.90;;;;;;4977315;28;20233;-75
2022/06/02 01:40:02;;;;;;;5.40;5.00;;;14.00;99.90;;;;;;4973236;28;20270;-76
2022/06/02 01:42:41;;;;;;;5.43;4.90;;;13.90;99.90;;;;;;4961257;28;20221;-78
2022/06/02 01:45:16;;;;;;;5.40;5.00;;;13.90;99.90;;;;;;4962572;28;20202;-76
2022/06/02 01:47:47;;;;;;;5.40;5.10;;;13.90;99.90;;;;;;4970518;28;20225;-77
2022/06/02 01:50:28;;;;;;;5.90;5.40;;;13.80;99.90;;;;;;4962117;28;20198;-77
2022/06/02 01:53:06;;;;;;;5.50;5.20;;;13.80;99.90;;;;;;4956480;29;20198;-77
2022/06/02 01:55:48;;;;;;;5.67;5.30;;;13.70;99.90;;;;;;4961420;28;20210;-76
2022/06/02 01:58:26;;;;;;;5.87;5.47;;;13.60;99.90;;;;;;4976055;28;20222;-76
2022/06/02 02:00:59;;;;;;;5.80;5.30;;;13.60;99.90;;;;;;4976248;28;20215;-76
2022/06/02 02:03:39;;;;;;;6.27;5.67;;;13.60;99.90;;;;;;4960900;28;20206;-76
2022/06/02 02:06:14;;;;;;;5.30;5.00;;;13.50;99.90;;;;;;4961903;28;20246;-75
2022/06/02 02:09:02;;;;;;;5.80;5.40;;;13.50;99.90;;;;;;4966934;28;20260;-75
2022/06/02 02:11:43;;;;;;;5.37;4.97;;;13.50;99.90;;;;;;4961328;28;20207;-77
2022/06/02 02:14:22;;;;;;;5.30;4.90;;;13.50;99.90;;;;;;4974085;28;20257;-77
2022/06/02 02:16:56;;;;;;;5.20;4.90;;;13.50;99.90;;;;;;4968779;28;20640;-76
2022/06/02 02:19:39;;;;;;;5.67;5.27;;;13.40;99.90;;;;;;4960190;28;20198;-76
2022/06/02 02:22:13;;;;;;;5.73;5.13;;;13.40;99.90;;;;;;4961710;28;20213;-76
2022/06/02 02:24:54;;;;;;;6.17;5.53;;;13.40;99.90;;;;;;4969066;28;20209;-77
2022/06/02 02:28:02;;;;;;;6.80;6.23;;;13.40;99.90;;;;;;4960336;28;20257;-77
2022/06/02 02:30:28;;;;;;;6.17;5.63;;;13.40;99.90;;;;;;4959790;29;20659;-76
2022/06/02 02:33:00;;;;;;;5.87;5.47;;;13.40;99.90;;;;;;4973147;28;20263;-77
2022/06/02 02:35:39;;;;;;;5.37;5.00;;;13.40;99.90;;;;;;4961251;28;20206;-81
2022/06/02 02:38:11;;;;;;;5.53;5.13;;;13.40;99.90;;;;;;4960719;28;20213;-77
2022/06/02 02:40:46;;;;;;;5.40;5.00;;;13.40;99.90;;;;;;4961529;28;20225;-76
2022/06/02 02:43:20;;;;;;;6.10;5.60;;;13.30;99.90;;;;;;4959891;28;20212;-75
2022/06/02 02:45:53;;;;;;;6.20;5.40;;;13.20;99.90;;;;;;4962226;28;20206;-76
2022/06/02 02:48:36;;;;;;;5.80;5.30;;;13.20;99.90;;;;;;4962460;28;20226;-78
2022/06/02 02:51:09;;;;;;;5.60;5.20;;;13.20;99.90;;;;;;4959662;29;20230;-77
2022/06/02 02:53:42;;;;;;;6.50;6.00;;;13.10;99.90;;;;;;4973961;28;20667;-76
2022/06/02 02:56:16;;;;;;;6.43;5.90;;;13.10;99.90;;;;;;4964283;28;20238;-79
2022/06/02 02:58:49;;;;;;;6.83;6.13;;;13.10;99.90;;;;;;4956673;28;20267;-79
2022/06/02 03:01:24;;;;;;;6.30;5.80;;;13.00;99.90;;;;;;4950257;28;20223;-77
2022/06/02 03:04:06;;;;;;;5.80;5.40;;;12.90;99.90;;;;;;4951432;28;20571;-80
2022/06/02 03:06:39;;;;;;;7.23;6.63;;;12.90;99.90;;;;;;4951216;28;20227;-82
2022/06/02 03:09:25;;;;;;;6.83;6.20;;;12.80;99.90;;;;;;4968303;28;20210;-82
2022/06/02 03:12:06;;;;;;;6.23;5.83;;;12.80;99.90;;;;;;4967566;28;20206;-82
2022/06/02 03:14:55;;;;;;;6.63;6.13;;;12.80;99.90;;;;;;4958363;28;20244;-81
2022/06/02 03:17:33;;;;;;;6.73;6.03;;;12.80;99.90;;;;;;4951665;28;20222;-82
2022/06/02 03:20:05;;;;;;;6.33;5.83;;;12.80;99.90;;;;;;4959589;28;20269;-81
2022/06/02 03:22:50;;;;;;;6.50;6.00;;;12.90;99.90;;;;;;4951477;28;20293;-79
2022/06/02 03:25:23;;;;;;;6.93;6.23;;;12.90;99.90;;;;;;4953356;28;20209;-82
2022/06/02 03:27:59;;;;;;;7.20;6.70;;;12.90;99.90;;;;;;4971850;28;20229;-81
2022/06/02 03:30:36;;;;;;;7.23;6.73;;;12.80;99.90;;;;;;4972308;28;20209;-81
2022/06/02 03:33:14;;;;;;;7.23;6.73;;;12.80;99.90;;;;;;4957630;28;20257;-80
2022/06/02 03:35:51;;;;;;;6.50;6.10;;;12.80;99.90;;;;;;4966319;28;20670;-81
2022/06/02 03:38:30;;;;;;;6.73;6.23;;;12.80;99.90;;;;;;4972066;28;20230;-81
2022/06/02 03:41:21;;;;;;;7.27;6.67;;;12.80;99.90;;;;;;4955322;28;20224;-81
2022/06/02 03:43:55;;;;;;;6.80;6.20;;;12.80;99.90;;;;;;4949764;28;20199;-81
2022/06/02 03:46:39;;;;;;;7.07;6.37;;;12.80;99.90;;;;;;4956903;28;20236;-80
2022/06/02 03:49:35;;;;;;;6.47;5.80;;;12.80;99.90;;;;;;4968633;28;20293;-80
2022/06/02 03:52:17;;;;;;;6.43;5.93;;;12.80;99.90;;;;;;4951166;28;20265;-80
2022/06/02 03:55:05;;;;;;;6.33;5.77;;;12.80;99.90;;;;;;4950330;28;20196;-80
2022/06/02 03:57:47;;;;;;;6.80;6.20;;;12.80;99.90;;;;;;4956470;28;20213;-81
2022/06/02 04:00:21;;;;;;;7.70;7.20;;;12.90;99.90;;;;;;4956253;29;20201;-81
2022/06/02 04:02:52;;;;;;;6.93;6.43;;;13.00;99.90;;;;;;4971348;28;20202;-81
2022/06/02 04:05:41;;;;;;;6.53;6.07;;;13.00;99.90;;;;;;4971346;28;20291;-81
2022/06/02 04:08:23;;;;;;;6.90;6.30;;;13.10;99.90;;;;;;4971060;28;20242;-81
2022/06/02 04:10:59;;;;;;;6.90;6.30;;;13.10;99.90;;;;;;4954822;28;20203;-80
2022/06/02 04:13:37;;;;;;;6.20;5.80;;;13.20;99.90;;;;;;4956428;28;20206;-80
2022/06/02 04:16:28;;;;;;;6.30;5.90;;;13.30;99.90;;;;;;4971087;28;20257;-81
2022/06/02 04:22:13;;;;;;;3.77;2.73;;;13.50;99.90;;;;;;4965681;28;20218;-81
2022/06/02 04:24:50;;;;;;;2.50;2.30;;;13.50;99.90;;;;;;4967651;28;20636;-81
2022/06/02 04:27:26;;;;;;;2.50;2.30;;;13.60;99.90;;;;;;4953369;28;20225;-79
2022/06/02 04:30:04;;;;;;;6.10;5.70;;;13.70;99.90;;;;;;4950178;29;20249;-81
2022/06/02 04:32:41;;;;;;;6.90;6.33;;;13.80;99.90;;;;;;4970617;28;20202;-80
2022/06/02 04:35:30;;;;;;;7.23;6.73;;;13.80;99.90;;;;;;4970663;28;20265;-81
2022/06/02 04:38:04;;;;;;;5.93;5.57;;;13.90;99.90;;;;;;4969800;28;20278;-81
2022/06/02 04:40:42;;;;;;;5.97;5.57;;;13.90;99.90;;;;;;4970707;28;20214;-80
2022/06/02 04:43:18;;;;;;;5.60;5.20;;;14.10;99.90;;;;;;4976681;28;20206;-80
2022/06/02 04:45:56;;;;;;;3.77;2.93;;;14.30;99.90;;;;;;4955028;28;20214;-81
2022/06/02 04:48:28;;;;;;;5.83;4.70;;;14.40;99.90;;;;;;4955527;28;20203;-81
2022/06/02 04:51:04;;;;;;;2.80;2.00;;;14.60;99.90;;;;;;4954183;28;20195;-81
2022/06/02 04:53:38;;;;;;;5.53;5.13;;;14.70;99.90;;;;;;4955637;28;20207;-81
2022/06/02 04:56:14;;;;;;;5.87;5.47;;;15.10;99.90;;;;;;4970366;28;20668;-81
2022/06/02 04:58:51;;;;;;;4.27;3.97;;;15.40;99.90;;;;;;4955506;28;20204;-81
2022/06/02 05:01:32;;;;;;;2.87;2.63;;;15.40;99.90;;;;;;4955466;28;20242;-81
2022/06/02 05:04:10;;;;;;;2.73;2.30;;;15.60;99.90;;;;;;4954166;28;20207;-81
2022/06/02 05:06:43;;;;;;;2.60;2.40;;;15.70;99.90;;;;;;4970018;28;20501;-81
2022/06/02 05:09:16;;;;;;;5.20;4.90;;;15.80;99.90;;;;;;4967248;28;20576;-81
2022/06/02 05:12:05;;;;;;;4.43;4.03;;;15.90;99.90;;;;;;4940633;28;20256;-81
2022/06/02 05:14:37;;;;;;;2.03;1.80;;;15.90;99.90;;;;;;4953898;28;20202;-81
2022/06/02 05:17:17;;;;;;;5.23;4.60;;;16.00;99.90;;;;;;4953909;28;20224;-81
2022/06/02 05:20:02;;;;;;;4.83;4.43;;;16.20;99.90;;;;;;4955478;28;20232;-81
2022/06/02 05:23:02;;;;;;;4.90;4.60;;;16.20;99.90;;;;;;4952857;29;20228;-81
2022/06/02 05:26:09;;;;;;;5.20;4.70;;;16.30;99.90;;;;;;4955044;29;20208;-81
2022/06/02 05:28:58;;;;;;;5.00;4.60;;;16.20;99.90;;;;;;4939159;28;20245;-81
2022/06/02 05:32:00;;;;;;;3.40;3.20;;;16.20;99.90;;;;;;4954481;28;20191;-81
2022/06/02 05:34:53;;;;;;;3.77;3.47;;;16.50;99.90;;;;;;4969736;28;20213;-80
2022/06/02 05:37:32;;;;;;;4.10;3.80;;;16.60;99.90;;;;;;4967575;28;20245;-81
2022/06/02 05:40:10;;;;;;;2.73;2.40;;;16.90;99.90;;;;;;4970097;28;20722;-82
2022/06/02 05:42:46;;;;;;;3.47;3.17;;;17.20;99.90;;;;;;4965268;28;20245;-82
2022/06/02 05:45:25;;;;;;;4.40;4.10;;;17.90;99.90;;;;;;4948849;29;20286;-81
2022/06/02 05:48:06;;;;;;;3.57;2.60;;;19.00;99.90;;;;;;4949471;28;20220;-81
2022/06/02 05:50:39;;;;;;;2.20;2.00;;;19.10;99.90;;;;;;4954935;28;20196;-81
2022/06/02 05:53:17;;;;;;;2.20;2.00;;;19.90;99.90;;;;;;4950537;29;20213;-82
2022/06/02 05:56:03;;;;;;;2.37;1.90;;;20.60;99.90;;;;;;4953642;28;20628;-82
2022/06/02 05:58:55;;;;;;;2.87;1.93;;;20.80;99.90;;;;;;4968945;28;20203;-81
2022/06/02 06:01:32;;;;;;;2.93;2.20;;;21.10;99.90;;;;;;4947273;28;20319;-80
2022/06/02 06:04:27;;;;;;;3.30;2.67;;;20.70;99.90;;;;;;4955250;28;20190;-80
2022/06/02 06:06:56;;;;;;;5.00;4.30;;;20.60;99.90;;;;;;4954033;28;20730;-80
2022/06/02 06:09:35;;;;;;;5.03;4.63;;;20.60;99.90;;;;;;4954684;28;20203;-80
2022/06/02 06:12:36;;;;;;;5.23;4.83;;;19.90;99.90;;;;;;4954259;28;20214;-80
2022/06/02 06:15:12;;;;;;;5.70;4.80;;;20.10;99.90;;;;;;4965222;28;20198;-80
2022/06/02 06:17:47;;;;;;;4.37;4.00;;;20.70;99.90;;;;;;4953112;28;20222;-80
2022/06/02 06:20:40;;;;;;;4.80;4.40;;;20.60;99.90;;;;;;4952994;29;20194;-79
2022/06/02 06:23:36;;;;;;;5.77;5.30;;;20.60;99.90;;;;;;4965493;28;20199;-80
2022/06/02 06:26:16;;;;;;;5.23;4.83;;;20.70;99.90;;;;;;4949800;28;20198;-80
2022/06/02 06:28:57;;;;;;;5.43;5.03;;;20.50;99.90;;;;;;4963920;28;20206;-80
2022/06/02 06:31:37;;;;;;;5.63;5.23;;;20.60;99.90;;;;;;4972265;28;20580;-76
2022/06/02 06:34:16;;;;;;;4.40;4.03;;;20.90;99.90;;;;;;4954367;28;20689;-78
2022/06/02 06:37:05;;;;;;;2.73;2.33;;;20.80;99.90;;;;;;4949176;28;20277;-80
2022/06/02 06:39:43;;;;;;;4.57;2.27;;;21.20;99.90;;;;;;4953886;29;20269;-79
2022/06/02 06:42:35;;;;;;;2.87;2.33;;;21.20;99.80;;;;;;4956089;28;20194;-79
2022/06/02 06:45:09;;;;;;;5.07;2.33;;;21.50;99.70;;;;;;4950987;28;20205;-77
2022/06/02 06:47:41;;;;;;;2.30;2.10;;;21.70;98.70;;;;;;4952063;28;20293;-77
2022/06/02 06:50:17;;;;;;;4.63;4.17;;;21.90;99.00;;;;;;4968761;28;20202;-77
2022/06/02 06:53:16;;;;;;;3.40;2.20;;;22.10;99.10;;;;;;4954065;28;20530;-76
2022/06/02 06:55:55;;;;;;;3.70;3.37;;;22.50;97.90;;;;;;4953671;28;20217;-78
2022/06/02 06:58:35;;;;;;;5.30;4.90;;;22.70;97.40;;;;;;4953449;28;20202;-76
2022/06/02 07:01:09;;;;;;;6.27;3.03;;;22.70;97.00;;;;;;4955086;28;20249;-77
2022/06/02 07:03:47;;;;;;;9.60;3.27;;;22.50;96.00;;;;;;4955467;28;20200;-76
2022/06/02 07:06:20;;;;;;;1.93;1.70;;;22.20;97.20;;;;;;4964499;28;20240;-77
2022/06/02 07:08:56;;;;;;;4.20;3.80;;;22.30;98.20;;;;;;4955771;28;20265;-76
2022/06/02 07:14:22;;;;;;;5.90;4.77;;;22.90;97.80;;;;;;4958331;28;20257;-78
2022/06/02 07:16:55;;;;;;;2.73;2.53;;;22.90;95.50;;;;;;4973013;28;20231;-77
2022/06/02 07:19:38;;;;;;;4.63;4.33;;;22.70;97.70;;;;;;4958960;28;20198;-79
2022/06/02 07:22:12;;;;;;;4.27;3.07;;;23.30;96.20;;;;;;4957995;28;20203;-77
2022/06/02 07:24:49;;;;;;;2.17;2.07;;;23.30;94.70;;;;;;4949471;28;20198;-77
2022/06/02 07:27:25;;;;;;;3.23;2.00;;;23.50;95.70;;;;;;4958170;28;20232;-78
2022/06/02 07:30:07;;;;;;;3.73;3.43;;;23.40;96.00;;;;;;4944713;29;20257;-78
2022/06/02 07:33:03;;;;;;;2.77;2.57;;;23.20;95.00;;;;;;4956160;28;20768;-77
2022/06/02 07:36:09;;;;;;;3.60;3.30;;;23.20;95.70;;;;;;4956654;28;20201;-77
2022/06/02 07:38:59;;;;;;;3.40;2.37;;;23.50;95.90;;;;;;4945166;28;20261;-77
2022/06/02 07:41:56;;;;;;;2.67;2.47;;;23.50;95.30;;;;;;4955091;28;20207;-77
2022/06/02 07:45:01;;;;;;;3.83;1.80;;;23.70;94.30;;;;;;4969501;28;20203;-77
2022/06/02 07:47:50;;;;;;;2.83;1.80;;;23.40;95.30;;;;;;4955043;28;20621;-77
2022/06/02 07:50:20;;;;;;;2.30;1.93;;;23.40;95.00;;;;;;4955078;28;20198;-78
2022/06/02 07:52:58;;;;;;;4.17;3.83;;;23.40;95.50;;;;;;4955977;28;20210;-76
2022/06/02 07:55:33;;;;;;;3.00;2.57;;;23.70;95.60;;;;;;4955557;28;20202;-78
2022/06/02 07:58:15;;;;;;;2.10;1.90;;;23.50;95.40;;;;;;4957761;28;20272;-77
2022/06/02 08:00:51;;;;;;;1.90;1.80;;;23.80;96.80;;;;;;4957516;28;20198;-78
2022/06/02 08:03:38;;;;;;;4.20;3.90;;;24.10;94.70;;;;;;4972057;28;20548;-78
2022/06/02 08:06:12;;;;;;;3.73;3.43;;;24.10;94.40;;;;;;4957472;28;20226;-78
2022/06/02 08:08:44;;;;;;;5.00;4.23;;;24.00;94.20;;;;;;4957654;28;20257;-78
2022/06/02 08:11:24;;;;;;;4.10;3.90;;;24.00;94.00;;;;;;4957216;28;20261;-79
2022/06/02 08:14:04;;;;;;;4.40;4.07;;;24.20;94.40;;;;;;4957319;28;20222;-78
2022/06/02 08:16:46;;;;;;;2.43;2.33;;;24.30;94.20;;;;;;4972359;28;20241;-80
2022/06/02 08:19:16;;;;;;;2.93;1.70;;;24.10;94.90;;;;;;4971028;28;20297;-78
2022/06/02 08:21:47;;;;;;;4.70;4.30;;;24.40;95.30;;;;;;4970923;28;20199;-78
2022/06/02 08:24:48;;;;;;;2.07;1.87;;;24.60;94.10;;;;;;4973320;28;20207;-78
2022/06/02 08:27:44;;;;;;;4.30;4.00;;;24.70;95.20;;;;;;4954709;28;20226;-78
2022/06/02 08:30:17;;;;;;;2.07;1.83;;;25.20;93.80;;;;;;4941264;28;20262;-78
2022/06/02 08:33:10;;;;;;;3.23;3.00;;;25.30;93.10;;;;;;4954128;28;20657;-77
2022/06/02 08:35:44;;;;;;;3.60;3.20;;;25.60;93.70;;;;;;4961841;28;20194;-77
2022/06/02 08:38:40;;;;;;;3.87;3.57;;;25.50;92.70;;;;;;4953836;28;20230;-78
2022/06/02 08:41:32;;;;;;;3.70;3.40;;;25.90;92.40;;;;;;4966125;28;20207;-78
2022/06/02 08:44:33;;;;;;;3.27;2.97;;;25.90;92.20;;;;;;4950594;28;20199;-78
2022/06/02 08:47:34;;;;;;;3.50;3.30;;;25.00;93.00;;;;;;4951721;28;20270;-76
2022/06/02 08:50:43;;;;;;;1.93;1.80;;;24.70;93.70;;;;;;4966562;28;20287;-78
2022/06/02 08:53:44;;;;;;;2.90;1.70;;;24.70;94.70;;;;;;4951276;28;20213;-78
2022/06/02 08:56:36;;;;;;;3.13;1.90;;;25.20;93.90;;;;;;4963310;28;20219;-78
2022/06/02 08:59:45;;;;;;;1.70;1.60;;;25.40;92.70;;;;;;4950538;28;20572;-77
2022/06/02 09:02:58;;;;;;;2.33;1.60;;;25.50;93.80;;;;;;4946186;28;20210;-77
2022/06/02 09:06:03;;;;;;;5.60;3.77;;;25.90;93.70;;;;;;4954854;28;20672;-78
2022/06/02 09:08:44;;;;;;;3.33;3.00;;;25.80;92.90;;;;;;4968809;28;20213;-77
2022/06/02 09:11:33;;;;;;;4.87;3.33;;;26.00;92.90;;;;;;4961336;28;20202;-78
2022/06/02 09:14:30;;;;;;;3.37;3.07;;;26.20;92.80;;;;;;4969658;28;20222;-78
2022/06/02 09:17:08;;;;;;;5.67;4.60;;;25.70;92.70;;;;;;4948886;28;20285;-77
2022/06/02 09:19:59;;;;;;;3.63;3.33;;;25.80;91.90;;;;;;4953368;28;20206;-77
2022/06/02 09:22:42;;;;;;;5.07;4.67;;;25.50;92.40;;;;;;4951270;28;20206;-77
2022/06/02 09:25:22;;;;;;;2.63;2.43;;;25.80;91.80;;;;;;4969689;28;20206;-78
2022/06/02 09:28:32;;;;;;;2.77;2.57;;;25.20;91.80;;;;;;4947770;28;20222;-77
2022/06/02 09:31:12;;;;;;;2.67;1.90;;;24.90;91.30;;;;;;4954490;28;20242;-79
2022/06/02 09:34:02;;;;;;;5.00;2.00;;;25.10;93.70;;;;;;4949254;28;20254;-78
2022/06/02 09:37:13;;;;;;;4.97;1.77;;;25.40;93.30;;;;;;4956336;28;20219;-79
2022/06/02 09:40:01;;;;;;;2.30;1.90;;;25.90;93.20;;;;;;4928762;28;20203;-78
2022/06/02 09:42:46;;;;;;;1.60;1.50;;;25.90;91.00;;;;;;4955269;28;20211;-79
2022/06/02 09:45:30;;;;;;;1.93;1.80;;;25.50;92.00;;;;;;4968565;28;20627;-79
2022/06/02 09:48:17;;;;;;;3.60;1.80;;;25.90;91.90;;;;;;4952514;28;20751;-79
2022/06/02 09:51:12;;;;;;;3.67;1.93;;;26.20;91.30;;;;;;4957629;28;20265;-78
2022/06/02 09:54:13;;;;;;;1.63;1.47;;;26.00;91.10;;;;;;4947088;28;20222;-82
2022/06/02 10:00:15;;;;;;;3.53;2.00;;;26.00;91.40;;;;;;4953253;28;20222;-78
2022/06/02 10:02:57;;;;;;;3.00;1.80;;;26.60;91.10;;;;;;4960921;28;20245;-78
2022/06/02 10:05:48;;;;;;;3.13;2.83;;;26.50;92.00;;;;;;4958541;28;20258;-78
2022/06/02 10:08:31;;;;;;;5.27;4.87;;;26.50;90.70;;;;;;4955013;28;20719;-80
2022/06/02 10:11:13;;;;;;;5.17;4.67;;;26.30;90.90;;;;;;4970018;28;20202;-80
2022/06/02 10:14:03;;;;;;;3.53;1.70;;;26.20;91.40;;;;;;4952496;28;20218;-79
2022/06/02 10:17:09;;;;;;;2.33;2.10;;;26.20;92.20;;;;;;4955459;28;20218;-78
2022/06/02 10:20:06;;;;;;;4.90;4.60;;;25.90;91.90;;;;;;4956822;28;20202;-80
2022/06/02 10:22:43;;;;;;;5.03;4.57;;;25.80;91.30;;;;;;4955931;28;20202;-79
2022/06/02 10:25:47;;;;;;;3.93;3.57;;;25.80;91.00;;;;;;4948528;29;20211;-83
2022/06/02 10:28:44;;;;;;;3.37;1.77;;;25.30;92.50;;;;;;4948631;28;20227;-81
2022/06/02 10:31:47;;;;;;;2.73;1.80;;;25.70;92.80;;;;;;4950746;28;20206;-80
2022/06/02 10:35:09;;;;;;;2.80;1.77;;;26.00;91.80;;;;;;4952975;28;20273;-82
2022/06/02 10:38:01;;;;;;;2.83;1.87;;;25.90;92.30;;;;;;4958873;28;20766;-79
2022/06/02 10:41:05;;;;;;;1.83;1.70;;;25.80;92.40;;;;;;4958371;28;20203;-81
2022/06/02 10:43:51;;;;;;;4.00;1.90;;;26.00;92.40;;;;;;4964743;28;20201;-81
2022/06/02 10:47:14;;;;;;;3.00;2.37;;;25.60;91.60;;;;;;4958114;28;20226;-82
2022/06/02 10:49:50;;;;;;;2.87;1.80;;;25.50;92.70;;;;;;4966127;28;20254;-80
2022/06/02 10:52:57;;;;;;;4.43;4.13;;;25.40;92.80;;;;;;4957612;28;20257;-84
2022/06/02 10:55:53;;;;;;;2.67;2.47;;;25.30;92.50;;;;;;4957573;28;20202;-81
2022/06/02 10:58:58;;;;;;;6.03;4.77;;;24.90;92.50;;;;;;4957444;28;20623;-84
2022/06/02 11:01:58;;;;;;;4.13;3.83;;;24.80;92.60;;;;;;4956302;29;20210;-81
2022/06/02 11:05:22;;;;;;;5.07;4.33;;;24.40;93.60;;;;;;4956350;28;20205;-84
2022/06/02 11:08:28;;;;;;;5.90;3.53;;;24.40;93.00;;;;;;4917025;29;20264;-83
2022/06/02 11:11:43;;;;;;;2.20;2.00;;;24.60;93.20;;;;;;4893472;29;20200;-82
2022/06/02 11:14:49;;;;;;;3.00;2.70;;;24.30;92.90;;;;;;4960205;28;20223;-82
2022/06/02 11:17:45;;;;;;;4.70;4.33;;;24.40;93.70;;;;;;4952619;28;20233;-82
2022/06/02 11:20:53;;;;;;;2.57;1.70;;;24.30;93.00;;;;;;4953237;28;20238;-82
2022/06/02 11:23:54;;;;;;;3.50;3.20;;;24.20;94.00;;;;;;4955631;28;20254;-84
2022/06/02 11:26:52;;;;;;;3.47;3.17;;;24.30;94.60;;;;;;4956966;28;20622;-82
2022/06/02 11:29:46;;;;;;;3.93;3.67;;;23.90;93.60;;;;;;4979523;28;20261;-83
2022/06/02 11:32:22;;;;;;;4.57;4.27;;;24.00;93.40;;;;;;4959039;28;20202;-84
2022/06/02 11:35:26;;;;;;;4.40;4.10;;;23.90;94.60;;;;;;4973618;28;20214;-84
2022/06/02 11:38:16;;;;;;;5.20;4.70;;;24.00;93.90;;;;;;4952725;28;20284;-85
2022/06/02 11:40:56;;;;;;;2.03;1.70;;;24.30;94.60;;;;;;4949954;28;20201;-85
2022/06/02 11:43:34;;;;;;;2.83;1.60;;;24.90;94.60;;;;;;4973419;28;20226;-85
2022/06/02 11:46:33;;;;;;;1.87;1.77;;;25.10;93.10;;;;;;4957040;28;20203;-84
2022/06/02 11:49:43;;;;;;;3.40;2.47;;;25.00;93.10;;;;;;4943000;28;20298;-84
2022/06/02 11:52:41;;;;;;;5.70;5.30;;;25.10;93.30;;;;;;4905306;29;20213;-83
2022/06/02 11:55:33;;;;;;;4.90;4.60;;;25.10;92.60;;;;;;4970153;28;20202;-83
2022/06/02 11:58:17;;;;;;;2.70;1.90;;;25.00;93.40;;;;;;4949635;28;20222;-84
2022/06/02 12:01:27;;;;;;;3.13;2.93;;;25.00;92.90;;;;;;4964405;28;20203;-83
2022/06/02 12:04:31;;;;;;;3.33;3.00;;;25.00;93.50;;;;;;4950289;28;20194;-83
2022/06/02 12:07:33;;;;;;;2.90;2.70;;;25.10;92.20;;;;;;4956889;28;20218;-80
2022/06/02 12:10:17;;;;;;;2.20;1.83;;;25.20;92.90;;;;;;4949893;29;20751;-83
2022/06/02 12:13:06;;;;;;;2.63;1.60;;;25.30;93.20;;;;;;4948931;28;20245;-83
2022/06/02 12:16:14;;;;;;;2.70;1.70;;;25.30;92.60;;;;;;4955185;28;20241;-83
2022/06/02 12:18:58;;;;;;;1.90;1.80;;;25.40;92.80;;;;;;4964236;28;20277;-82
2022/06/02 12:21:50;;;;;;;4.87;3.70;;;25.50;93.20;;;;;;4956456;28;20257;-83
2022/06/02 12:24:50;;;;;;;4.50;4.10;;;25.60;92.90;;;;;;4954752;28;20194;-83
2022/06/02 12:27:31;;;;;;;2.70;2.50;;;25.40;92.30;;;;;;4955334;28;20309;-83
2022/06/02 12:30:14;;;;;;;6.73;2.30;;;25.20;93.00;;;;;;4956132;28;20257;-82
2022/06/02 12:32:59;;;;;;;2.10;1.90;;;25.10;92.60;;;;;;4946932;28;20276;-82
2022/06/02 12:35:44;;;;;;;1.80;1.70;;;25.20;93.80;;;;;;4955650;28;20688;-82
2022/06/02 12:38:49;;;;;;;1.97;1.80;;;25.30;92.40;;;;;;4953817;28;20230;-83
2022/06/02 12:41:31;;;;;;;3.27;1.80;;;25.40;92.50;;;;;;4966013;28;20273;-81
2022/06/02 12:44:34;;;;;;;2.00;1.70;;;25.60;92.30;;;;;;4956018;28;20199;-82
2022/06/02 12:47:41;;;;;;;1.97;1.87;;;25.70;92.20;;;;;;4966927;28;20732;-82
2022/06/02 12:50:37;;;;;;;3.20;2.00;;;25.60;93.10;;;;;;4950480;28;20254;-83
2022/06/02 12:53:39;;;;;;;2.57;1.93;;;25.60;92.90;;;;;;4948345;28;20198;-81
2022/06/02 12:56:22;;;;;;;2.50;1.63;;;25.90;92.90;;;;;;4949911;28;20202;-81
2022/06/02 12:59:32;;;;;;;2.07;1.90;;;26.00;92.80;;;;;;4948821;28;20739;-82
2022/06/02 13:02:11;;;;;;;4.17;1.73;;;25.60;92.40;;;;;;4969557;28;20677;-83
2022/06/02 13:05:18;;;;;;;4.33;3.97;;;25.50;92.50;;;;;;4965361;28;20273;-82
2022/06/02 13:08:19;;;;;;;2.93;1.80;;;25.50;92.70;;;;;;4963326;28;20226;-82
2022/06/02 13:11:13;;;;;;;2.50;2.00;;;25.30;93.30;;;;;;4945613;28;20224;-82
2022/06/02 13:14:06;;;;;;;2.90;2.00;;;25.30;92.20;;;;;;4957743;28;20210;-82
2022/06/02 13:16:56;;;;;;;3.00;1.80;;;25.10;92.60;;;;;;4954465;28;20295;-82
2022/06/02 13:19:46;;;;;;;1.90;1.80;;;25.00;93.40;;;;;;4954784;28;20257;-82
2022/06/02 13:22:52;;;;;;;5.87;2.87;;;25.10;93.30;;;;;;4953293;28;20680;-82
2022/06/02 13:25:49;;;;;;;4.30;4.00;;;25.20;92.90;;;;;;4951413;28;20194;-81
2022/06/02 13:28:39;;;;;;;2.57;1.97;;;25.10;93.80;;;;;;4953667;28;20237;-82
2022/06/02 13:31:44;;;;;;;3.30;2.00;;;25.10;93.00;;;;;;4954304;28;20242;-82
2022/06/02 13:35:00;;;;;;;2.40;1.67;;;25.10;93.20;;;;;;4954581;28;20699;-81
2022/06/02 13:37:57;;;;;;;2.20;2.00;;;25.00;93.40;;;;;;4953200;28;20246;-81
2022/06/02 13:40:32;;;;;;;3.23;1.87;;;25.10;92.90;;;;;;4954936;28;20202;-82
2022/06/02 13:43:47;;;;;;;5.57;4.70;;;25.10;92.70;;;;;;4966400;28;20203;-83
2022/06/02 13:47:02;;;;;;;4.30;4.00;;;25.00;92.80;;;;;;4952928;28;20205;-80
2022/06/02 13:50:03;;;;;;;2.27;1.80;;;24.90;92.90;;;;;;4901314;29;20263;-80
2022/06/02 13:53:15;;;;;;;3.10;1.87;;;24.90;92.10;;;;;;4950821;28;20211;-79
2022/06/02 13:59:21;;;;;;;1.90;1.80;;;24.80;93.10;;;;;;4937872;28;20509;-84
2022/06/02 14:02:27;;;;;;;2.67;1.80;;;24.80;93.10;;;;;;4949914;28;20203;-83
2022/06/02 14:05:08;;;;;;;2.97;1.90;;;24.70;93.60;;;;;;4896094;29;20861;-86
2022/06/02 14:07:58;;;;;;;2.77;2.57;;;24.40;94.00;;;;;;4907443;29;20790;-82
2022/06/02 14:10:36;;;;;;;4.57;4.17;;;24.20;93.90;;;;;;4941823;28;20727;-82
2022/06/02 14:13:25;;;;;;;2.40;1.77;;;24.20;93.80;;;;;;4965937;28;20210;-81
2022/06/02 14:16:00;;;;;;;5.03;4.23;;;24.00;94.30;;;;;;4947737;29;20225;-82
2022/06/02 14:18:47;;;;;;;3.50;3.20;;;23.80;94.20;;;;;;4957263;28;20202;-83
2022/06/02 14:21:25;;;;;;;4.97;4.57;;;23.60;94.40;;;;;;4967097;28;20266;-81
2022/06/02 14:24:08;;;;;;;4.20;4.00;;;23.50;94.20;;;;;;4953490;28;20246;-84
2022/06/02 14:26:50;;;;;;;4.13;3.87;;;23.40;94.60;;;;;;4959908;28;20711;-85
2022/06/02 14:29:40;;;;;;;3.63;2.43;;;23.30;94.60;;;;;;4953325;28;20206;-81
2022/06/02 14:32:19;;;;;;;2.93;2.70;;;23.10;94.90;;;;;;4965677;28;20211;-83
2022/06/02 14:35:04;;;;;;;3.10;2.90;;;23.00;95.10;;;;;;4950282;28;20243;-83
2022/06/02 14:37:37;;;;;;;5.33;5.00;;;22.90;95.60;;;;;;4973928;28;20230;-84
2022/06/02 14:40:08;;;;;;;5.53;5.03;;;22.90;96.00;;;;;;4965837;28;20226;-83